Time;durP1;ratioP1;P1;durP2;ratioP2;P2;SDS_P1;SDS_P2;PMS_P1;PMS_P2;Temp;Humidity;BMP_temperature;BMP_pressure;BME280_temperature;BME280_humidity;BME280_pressure;Samples;Min_cycle;Max_cycle;Signal;HPM_P1;HPM_P2
2023/06/10 00:01:24;;;;;;;9.60;8.80;;;18.60;95.00;;;;;;4905257;29;20425;-90
2023/06/10 00:03:51;;;;;;;9.03;8.40;;;19.20;95.60;;;;;;4907257;29;20201;-90
2023/06/10 00:06:17;;;;;;;9.52;8.82;;;18.50;95.50;;;;;;4913151;29;20576;-89
2023/06/10 00:08:43;;;;;;;9.83;9.03;;;18.90;96.10;;;;;;4909507;29;20174;-88
2023/06/10 00:11:08;;;;;;;9.80;9.00;;;18.60;96.50;;;;;;4905936;29;20859;-88
2023/06/10 00:13:34;;;;;;;9.17;8.47;;;19.10;96.70;;;;;;4912364;29;20244;-89
2023/06/10 00:16:00;;;;;;;9.57;8.77;;;18.80;96.50;;;;;;4908839;29;20616;-89
2023/06/10 00:18:26;;;;;;;9.00;8.27;;;18.80;96.60;;;;;;4907485;29;20194;-89
2023/06/10 00:20:54;;;;;;;10.18;9.25;;;18.30;96.50;;;;;;4904626;29;20691;-89
2023/06/10 00:23:21;;;;;;;8.60;8.00;;;18.60;97.00;;;;;;4915952;29;20214;-89
2023/06/10 00:25:46;;;;;;;9.90;9.18;;;18.70;97.00;;;;;;4910719;29;20181;-89
2023/06/10 00:28:13;;;;;;;9.13;8.33;;;18.60;96.90;;;;;;4912550;29;20275;-89
2023/06/10 00:30:38;;;;;;;9.30;8.60;;;18.70;97.00;;;;;;4907476;29;20197;-89
2023/06/10 00:33:04;;;;;;;10.57;9.43;;;18.50;97.30;;;;;;4907730;29;20205;-89
2023/06/10 00:35:30;;;;;;;9.20;8.40;;;18.60;97.30;;;;;;4905162;29;20564;-89
2023/06/10 00:37:55;;;;;;;9.20;8.40;;;18.50;97.50;;;;;;4905287;29;20201;-89
2023/06/10 00:40:21;;;;;;;9.47;8.77;;;18.50;97.80;;;;;;4906669;29;20209;-90
2023/06/10 00:42:46;;;;;;;9.47;8.70;;;18.50;97.90;;;;;;4905585;29;20216;-90
2023/06/10 00:45:12;;;;;;;10.07;9.30;;;18.50;98.00;;;;;;4904556;29;20204;-90
2023/06/10 00:47:38;;;;;;;9.30;8.50;;;18.30;98.10;;;;;;4906869;29;20225;-89
2023/06/10 00:50:05;;;;;;;9.48;8.70;;;18.30;98.20;;;;;;4909231;29;20273;-89
2023/06/10 00:52:30;;;;;;;9.02;8.32;;;17.90;98.10;;;;;;4907088;29;20206;-89
2023/06/10 00:54:56;;;;;;;9.77;9.07;;;17.60;98.00;;;;;;4920396;29;20224;-90
2023/06/10 00:57:22;;;;;;;9.83;8.93;;;17.90;98.30;;;;;;4902098;29;20187;-90
2023/06/10 00:59:49;;;;;;;9.57;8.77;;;17.90;98.40;;;;;;4909171;29;20603;-90
2023/06/10 01:02:14;;;;;;;9.90;9.13;;;18.30;98.90;;;;;;4907567;29;20209;-89
2023/06/10 01:04:41;;;;;;;10.70;9.77;;;17.80;98.80;;;;;;4904625;29;20257;-89
2023/06/10 01:07:15;;;;;;;9.27;8.57;;;17.80;99.00;;;;;;4910678;29;20206;-89
2023/06/10 01:10:11;;;;;;;9.60;8.88;;;17.70;99.20;;;;;;4907029;29;20185;-89
2023/06/10 01:12:46;;;;;;;10.18;9.27;;;17.90;99.40;;;;;;4905123;29;20213;-89
2023/06/10 01:15:13;;;;;;;9.55;8.85;;;17.80;99.70;;;;;;4907090;29;20211;-90
2023/06/10 01:17:59;;;;;;;9.75;9.05;;;18.00;99.90;;;;;;4924665;29;20665;-89
2023/06/10 01:20:29;;;;;;;9.55;8.75;;;17.80;99.90;;;;;;4901134;29;20257;-90
2023/06/10 01:22:55;;;;;;;8.75;8.15;;;17.80;99.90;;;;;;4909828;29;20279;-89
2023/06/10 01:25:28;;;;;;;9.60;8.90;;;17.70;99.90;;;;;;4914351;29;20190;-91
2023/06/10 01:28:15;;;;;;;8.88;8.18;;;17.80;99.90;;;;;;4905743;29;20210;-90
2023/06/10 01:31:09;;;;;;;10.32;9.43;;;17.40;99.90;;;;;;4909322;29;20241;-90
2023/06/10 01:33:37;;;;;;;10.23;9.27;;;17.40;99.90;;;;;;4905575;29;20211;-90
2023/06/10 01:36:03;;;;;;;9.98;9.13;;;17.80;99.90;;;;;;4901760;29;20186;-91
2023/06/10 01:38:45;;;;;;;9.85;9.15;;;17.30;99.90;;;;;;4905564;29;20730;-90
2023/06/10 01:41:13;;;;;;;9.00;8.30;;;17.30;99.90;;;;;;4905517;29;20256;-90
2023/06/10 01:43:39;;;;;;;10.10;9.30;;;17.40;99.90;;;;;;4902457;29;20189;-90
2023/06/10 01:46:05;;;;;;;9.27;8.57;;;17.70;99.90;;;;;;4910507;29;20186;-89
2023/06/10 01:48:32;;;;;;;10.27;9.50;;;17.10;99.90;;;;;;4907775;29;20453;-89
2023/06/10 01:50:57;;;;;;;10.63;9.55;;;17.30;99.90;;;;;;4905306;29;20296;-89
2023/06/10 01:53:23;;;;;;;10.63;9.90;;;16.80;99.90;;;;;;4902800;29;20214;-89
2023/06/10 01:55:49;;;;;;;10.83;9.73;;;17.00;99.90;;;;;;4927739;29;20474;-89
2023/06/10 01:58:14;;;;;;;9.80;9.00;;;17.70;99.90;;;;;;4907874;29;20192;-89
2023/06/10 02:00:40;;;;;;;10.57;9.57;;;17.50;99.90;;;;;;4911479;29;20449;-90
2023/06/10 02:03:06;;;;;;;9.60;8.80;;;17.50;99.90;;;;;;4903617;29;20683;-90
2023/06/10 02:05:31;;;;;;;10.83;10.03;;;17.00;99.90;;;;;;4911271;29;20208;-89
2023/06/10 02:07:57;;;;;;;10.60;9.70;;;17.10;99.90;;;;;;4903639;29;20312;-90
2023/06/10 02:10:23;;;;;;;8.87;8.17;;;16.90;99.90;;;;;;4923582;29;21009;-90
2023/06/10 02:12:48;;;;;;;11.07;10.17;;;16.90;99.90;;;;;;4904017;29;20244;-89
2023/06/10 02:15:14;;;;;;;10.50;9.63;;;16.50;99.90;;;;;;4910250;29;20220;-89
2023/06/10 02:17:40;;;;;;;9.30;8.53;;;16.50;99.90;;;;;;4920894;29;20194;-90
2023/06/10 02:20:10;;;;;;;9.90;9.10;;;17.00;99.90;;;;;;4906316;29;20596;-89
2023/06/10 02:22:36;;;;;;;10.50;9.63;;;16.90;99.90;;;;;;4906512;29;20910;-90
2023/06/10 02:25:02;;;;;;;9.50;8.80;;;17.20;99.90;;;;;;4912416;29;20277;-89
2023/06/10 02:27:27;;;;;;;10.43;9.63;;;17.20;99.90;;;;;;4906400;29;20213;-90
2023/06/10 02:29:53;;;;;;;10.10;9.30;;;16.90;99.90;;;;;;4900009;29;20184;-89
2023/06/10 02:32:18;;;;;;;9.60;8.90;;;17.10;99.90;;;;;;4908593;29;20217;-90
2023/06/10 02:34:44;;;;;;;9.83;9.00;;;16.70;99.90;;;;;;4907015;29;20512;-90
2023/06/10 02:37:09;;;;;;;10.57;9.70;;;16.80;99.90;;;;;;4911418;29;20202;-90
2023/06/10 02:39:35;;;;;;;10.87;9.87;;;17.10;99.90;;;;;;4899112;29;20214;-90
2023/06/10 02:42:00;;;;;;;9.57;8.87;;;16.80;99.90;;;;;;4909398;29;20596;-90
2023/06/10 02:44:26;;;;;;;8.90;8.17;;;17.00;99.90;;;;;;4905671;29;20251;-90
2023/06/10 02:46:52;;;;;;;10.63;9.73;;;16.60;99.90;;;;;;4911055;29;20698;-90
2023/06/10 02:49:17;;;;;;;9.30;8.60;;;16.90;99.90;;;;;;4905422;29;20244;-90
2023/06/10 02:51:44;;;;;;;9.93;8.70;;;16.80;99.90;;;;;;4900929;29;20205;-90
2023/06/10 02:54:09;;;;;;;9.65;8.95;;;16.90;99.90;;;;;;4906159;29;20201;-90
2023/06/10 02:56:36;;;;;;;9.97;9.13;;;18.20;99.90;;;;;;4906479;29;20496;-90
2023/06/10 02:59:02;;;;;;;9.75;8.95;;;17.10;99.90;;;;;;4908386;29;20198;-90
2023/06/10 03:01:27;;;;;;;10.60;9.80;;;16.50;99.90;;;;;;4913260;29;20233;-90
2023/06/10 03:03:53;;;;;;;10.03;9.17;;;16.40;99.90;;;;;;4904928;29;20461;-89
2023/06/10 03:06:18;;;;;;;10.67;9.77;;;16.20;99.90;;;;;;4905959;29;20252;-90
2023/06/10 03:08:45;;;;;;;10.40;9.50;;;16.60;99.90;;;;;;4907130;29;20209;-90
2023/06/10 03:11:11;;;;;;;10.73;9.82;;;16.60;99.90;;;;;;4909472;29;21252;-90
2023/06/10 03:13:38;;;;;;;10.03;9.13;;;16.70;99.90;;;;;;4910587;29;20702;-90
2023/06/10 03:16:04;;;;;;;10.10;9.20;;;16.70;99.90;;;;;;4909443;29;20184;-90
2023/06/10 03:18:30;;;;;;;10.90;9.80;;;16.40;99.90;;;;;;4909711;29;20712;-91
2023/06/10 03:20:56;;;;;;;10.03;9.13;;;16.80;99.90;;;;;;4907873;29;20839;-90
2023/06/10 03:23:22;;;;;;;10.63;9.68;;;16.60;99.90;;;;;;4906468;29;20221;-91
2023/06/10 03:25:48;;;;;;;11.00;10.10;;;16.70;99.90;;;;;;4930129;29;20675;-89
2023/06/10 03:28:13;;;;;;;10.63;9.73;;;16.80;99.90;;;;;;4909266;29;20209;-89
2023/06/10 03:30:39;;;;;;;10.80;10.00;;;16.40;99.90;;;;;;4907046;29;20257;-90
2023/06/10 03:33:05;;;;;;;10.10;9.30;;;16.70;99.90;;;;;;4905061;29;20216;-91
2023/06/10 03:35:32;;;;;;;10.40;9.50;;;16.40;99.90;;;;;;4905936;29;20189;-89
2023/06/10 03:37:58;;;;;;;10.25;9.35;;;16.80;99.90;;;;;;4911144;29;20445;-90
2023/06/10 03:40:23;;;;;;;10.07;9.20;;;16.50;99.90;;;;;;4913398;29;20201;-89
2023/06/10 03:42:49;;;;;;;9.50;8.70;;;16.80;99.90;;;;;;4907936;29;20492;-89
2023/06/10 03:45:14;;;;;;;10.30;9.50;;;16.90;99.90;;;;;;4924166;29;20198;-89
2023/06/10 03:47:40;;;;;;;10.10;9.30;;;16.90;99.90;;;;;;4905842;29;20219;-89
2023/06/10 03:50:10;;;;;;;9.77;8.87;;;16.30;99.90;;;;;;4904909;29;20622;-89
2023/06/10 03:52:37;;;;;;;10.52;9.73;;;16.30;99.90;;;;;;4903218;29;20215;-90
2023/06/10 03:55:03;;;;;;;9.55;8.80;;;16.30;99.90;;;;;;4911046;29;20214;-89
2023/06/10 03:57:29;;;;;;;11.77;10.77;;;16.30;99.90;;;;;;4925920;29;20272;-90
2023/06/10 03:59:56;;;;;;;8.70;8.10;;;16.40;99.90;;;;;;4907639;29;20594;-89
2023/06/10 04:02:22;;;;;;;9.38;8.68;;;16.30;99.90;;;;;;4910182;29;20220;-90
2023/06/10 04:04:48;;;;;;;10.05;9.15;;;16.10;99.90;;;;;;4912861;29;20200;-90
2023/06/10 04:07:13;;;;;;;9.30;8.60;;;15.90;99.90;;;;;;4928936;29;20228;-90
2023/06/10 04:09:39;;;;;;;9.63;8.83;;;16.70;99.90;;;;;;4929041;29;20198;-89
2023/06/10 04:12:08;;;;;;;9.53;8.73;;;16.40;99.90;;;;;;4915711;29;20706;-90
2023/06/10 04:14:36;;;;;;;9.93;9.23;;;16.50;99.90;;;;;;4907864;29;20238;-90
2023/06/10 04:17:02;;;;;;;10.15;9.35;;;16.70;99.90;;;;;;4915285;29;20215;-91
2023/06/10 04:19:28;;;;;;;9.30;8.50;;;16.20;99.90;;;;;;4904182;29;20182;-89
2023/06/10 04:21:53;;;;;;;9.00;8.10;;;16.40;99.90;;;;;;4914287;29;20205;-89
2023/06/10 04:24:19;;;;;;;8.27;7.53;;;16.60;99.90;;;;;;4907391;29;20722;-89
2023/06/10 04:26:45;;;;;;;8.73;8.03;;;16.70;99.90;;;;;;4905971;29;20241;-90
2023/06/10 04:29:10;;;;;;;8.93;8.13;;;16.30;99.90;;;;;;4911343;29;20684;-90
2023/06/10 04:31:36;;;;;;;9.37;8.50;;;16.90;99.90;;;;;;4906728;29;20232;-91
2023/06/10 04:34:01;;;;;;;9.03;8.13;;;17.10;99.90;;;;;;4901956;29;20189;-90
2023/06/10 04:36:29;;;;;;;9.90;9.00;;;16.50;99.90;;;;;;4920793;29;20588;-91
2023/06/10 04:38:54;;;;;;;8.85;8.15;;;16.70;99.90;;;;;;4908825;29;20204;-90
2023/06/10 04:41:20;;;;;;;8.93;8.23;;;16.70;99.90;;;;;;4914378;29;20201;-90
2023/06/10 04:43:46;;;;;;;8.97;8.17;;;16.90;99.90;;;;;;4902383;29;20194;-90
2023/06/10 04:48:04;;;;;;;8.98;8.25;;;16.90;99.90;;;;;;5075330;27;20589;-71
2023/06/10 04:50:30;;;;;;;8.53;7.87;;;16.80;99.90;;;;;;5072348;28;20218;-71
2023/06/10 04:52:57;;;;;;;8.07;7.40;;;16.80;99.90;;;;;;5081844;28;20659;-71
2023/06/10 04:55:22;;;;;;;10.10;9.30;;;16.80;99.90;;;;;;5078924;28;20605;-72
2023/06/10 04:57:48;;;;;;;9.40;8.60;;;16.80;99.90;;;;;;5097877;28;20180;-72
2023/06/10 05:00:14;;;;;;;9.90;9.10;;;16.60;99.90;;;;;;5078680;28;20466;-72
2023/06/10 05:02:40;;;;;;;8.07;7.53;;;17.30;99.90;;;;;;5082887;28;20180;-71
2023/06/10 05:05:06;;;;;;;8.50;7.80;;;17.30;99.90;;;;;;5081664;28;20810;-69
2023/06/10 05:07:31;;;;;;;8.65;8.05;;;17.40;99.90;;;;;;5084074;28;20200;-75
2023/06/10 05:09:57;;;;;;;9.27;8.47;;;17.50;99.90;;;;;;5082927;28;20214;-71
2023/06/10 05:12:22;;;;;;;9.30;8.50;;;17.80;99.90;;;;;;5081948;28;20279;-71
2023/06/10 05:14:48;;;;;;;9.17;8.43;;;17.90;99.90;;;;;;5083444;28;20655;-74
2023/06/10 05:17:14;;;;;;;9.07;8.27;;;18.00;99.90;;;;;;5081038;28;20203;-70
2023/06/10 05:19:39;;;;;;;9.00;8.23;;;18.10;99.90;;;;;;5081426;28;20602;-71
2023/06/10 05:22:05;;;;;;;9.10;8.20;;;18.30;99.90;;;;;;5082574;28;20653;-72
2023/06/10 05:24:30;;;;;;;8.83;8.13;;;18.50;99.90;;;;;;5085465;28;20263;-70
2023/06/10 05:26:56;;;;;;;8.60;7.90;;;18.60;99.90;;;;;;5084176;28;20219;-70
2023/06/10 05:29:22;;;;;;;8.63;7.93;;;18.80;99.90;;;;;;5083393;28;20215;-70
2023/06/10 05:31:48;;;;;;;10.05;9.20;;;18.80;99.90;;;;;;5080099;28;20200;-71
2023/06/10 05:34:13;;;;;;;8.63;7.93;;;18.90;99.90;;;;;;5079987;28;20181;-70
2023/06/10 05:36:39;;;;;;;8.13;7.53;;;;;;;;;;5078526;28;20185;-70
2023/06/10 05:39:05;;;;;;;8.80;8.10;;;19.20;99.90;;;;;;5084228;28;20762;-70
2023/06/10 05:41:30;;;;;;;8.17;7.57;;;19.30;99.90;;;;;;5080600;28;20459;-70
2023/06/10 05:43:56;;;;;;;9.43;8.57;;;19.40;99.90;;;;;;5085164;28;20189;-74
2023/06/10 05:46:22;;;;;;;8.40;7.80;;;19.60;99.90;;;;;;5083071;28;20257;-71
2023/06/10 05:48:47;;;;;;;8.17;7.43;;;19.70;99.60;;;;;;5081879;28;20184;-70
2023/06/10 05:51:13;;;;;;;8.13;7.43;;;20.30;99.50;;;;;;5082036;28;20295;-71
2023/06/10 05:53:39;;;;;;;9.47;8.60;;;19.80;99.40;;;;;;5083332;28;20290;-71
2023/06/10 05:56:05;;;;;;;8.43;7.72;;;20.10;99.60;;;;;;5082276;28;20275;-75
2023/06/10 05:58:30;;;;;;;7.17;6.50;;;20.20;98.80;;;;;;5074834;28;20438;-70
2023/06/10 06:00:56;;;;;;;7.43;6.87;;;20.50;98.20;;;;;;5068923;28;20208;-72
2023/06/10 06:03:22;;;;;;;7.60;6.93;;;20.40;97.90;;;;;;5069218;28;20173;-74
2023/06/10 06:05:47;;;;;;;7.50;6.90;;;20.40;98.00;;;;;;5067757;28;20185;-70
2023/06/10 06:08:18;;;;;;;7.80;7.17;;;20.50;97.50;;;;;;5069195;28;20189;-72
2023/06/10 06:10:45;;;;;;;7.53;6.93;;;20.60;97.40;;;;;;5069223;28;20490;-71
2023/06/10 06:13:10;;;;;;;7.07;6.57;;;20.70;97.30;;;;;;5067301;28;20233;-72
2023/06/10 06:15:36;;;;;;;7.33;6.63;;;20.90;97.30;;;;;;5069524;28;20275;-72
2023/06/10 06:18:01;;;;;;;7.00;6.50;;;21.00;97.10;;;;;;5069497;28;20284;-71
2023/06/10 06:20:27;;;;;;;7.33;6.73;;;21.10;96.90;;;;;;5066435;28;20209;-69
2023/06/10 06:22:53;;;;;;;6.83;6.33;;;21.10;96.60;;;;;;5068541;28;20653;-69
2023/06/10 06:25:18;;;;;;;7.40;6.30;;;21.30;96.40;;;;;;5068919;28;20290;-71
2023/06/10 06:27:45;;;;;;;6.83;6.30;;;21.40;96.30;;;;;;5064975;28;20339;-71
2023/06/10 06:30:11;;;;;;;7.55;6.95;;;21.40;96.10;;;;;;5062242;28;20210;-71
2023/06/10 06:32:37;;;;;;;7.10;6.50;;;21.50;95.80;;;;;;5065807;28;20185;-70
2023/06/10 06:35:05;;;;;;;6.90;6.35;;;21.60;95.80;;;;;;5063673;28;20181;-69
2023/06/10 06:37:31;;;;;;;7.90;6.80;;;21.60;95.60;;;;;;5065235;28;20185;-71
2023/06/10 06:39:58;;;;;;;6.80;6.27;;;21.60;95.60;;;;;;5068292;28;20447;-71
2023/06/10 06:42:23;;;;;;;6.90;6.40;;;21.70;95.40;;;;;;5068286;28;20181;-71
2023/06/10 06:44:49;;;;;;;5.93;5.53;;;21.80;95.20;;;;;;5065724;28;20856;-71
2023/06/10 06:47:17;;;;;;;7.10;6.60;;;21.90;95.20;;;;;;5068094;28;20211;-71
2023/06/10 06:49:43;;;;;;;7.57;6.85;;;21.80;95.30;;;;;;5059198;28;20665;-75
2023/06/10 06:52:08;;;;;;;8.20;7.07;;;21.90;95.40;;;;;;5082251;28;20235;-70
2023/06/10 06:54:34;;;;;;;6.83;6.33;;;22.10;95.30;;;;;;5067877;28;20626;-72
2023/06/10 06:57:00;;;;;;;6.80;6.30;;;22.20;95.00;;;;;;5067931;28;20211;-74
2023/06/10 06:59:26;;;;;;;8.83;6.50;;;22.70;94.50;;;;;;5066489;28;20467;-73
2023/06/10 07:01:53;;;;;;;6.07;5.57;;;23.00;93.70;;;;;;5065824;28;20208;-74
2023/06/10 07:04:21;;;;;;;7.13;6.53;;;23.80;92.50;;;;;;5067616;28;20186;-73
2023/06/10 07:06:47;;;;;;;6.43;5.70;;;25.20;90.30;;;;;;5066863;28;20493;-73
2023/06/10 07:09:13;;;;;;;6.00;5.50;;;27.60;83.10;;;;;;5065274;28;20441;-69
2023/06/10 07:11:39;;;;;;;6.73;6.23;;;29.80;73.10;;;;;;5064269;28;20467;-70
2023/06/10 07:14:05;;;;;;;5.50;5.10;;;31.00;65.70;;;;;;5055277;28;20211;-68
2023/06/10 07:16:30;;;;;;;5.90;5.50;;;31.90;61.30;;;;;;5063078;28;20832;-68
2023/06/10 07:18:56;;;;;;;5.43;5.03;;;33.20;57.60;;;;;;5061915;28;20971;-69
2023/06/10 07:21:23;;;;;;;6.23;5.73;;;33.60;55.60;;;;;;5064520;28;20270;-72
2023/06/10 07:23:49;;;;;;;5.57;5.13;;;36.60;51.60;;;;;;5063758;28;20212;-72
2023/06/10 07:26:14;;;;;;;6.27;5.77;;;37.90;46.80;;;;;;5062253;28;20559;-72
2023/06/10 07:28:41;;;;;;;6.27;5.87;;;36.30;45.50;;;;;;5064618;28;20185;-74
2023/06/10 07:31:08;;;;;;;6.37;5.87;;;37.20;46.10;;;;;;5057580;28;20236;-72
2023/06/10 07:33:34;;;;;;;6.23;5.63;;;37.70;45.10;;;;;;5063829;28;20578;-71
2023/06/10 07:36:00;;;;;;;5.60;5.30;;;38.40;42.70;;;;;;5058285;28;20454;-71
2023/06/10 07:38:26;;;;;;;6.73;6.23;;;39.60;40.30;;;;;;5063131;28;20447;-71
2023/06/10 07:40:52;;;;;;;5.90;5.40;;;38.80;40.00;;;;;;5061040;28;20474;-72
2023/06/10 07:43:17;;;;;;;6.30;5.90;;;38.60;41.20;;;;;;5065991;28;21085;-71
2023/06/10 07:45:44;;;;;;;5.67;5.37;;;38.60;39.50;;;;;;5063669;28;20199;-72
2023/06/10 07:48:09;;;;;;;5.87;5.47;;;39.30;39.30;;;;;;5063158;28;20196;-71
2023/06/10 07:50:35;;;;;;;6.07;5.67;;;40.00;38.00;;;;;;5059429;28;20454;-71
2023/06/10 07:53:01;;;;;;;6.07;5.67;;;40.40;37.30;;;;;;5065903;28;20220;-69
2023/06/10 07:55:27;;;;;;;6.00;5.60;;;38.70;37.80;;;;;;5065841;28;20189;-69
2023/06/10 07:57:53;;;;;;;6.73;6.13;;;40.10;38.00;;;;;;5064296;28;20639;-70
2023/06/10 08:00:20;;;;;;;6.63;6.13;;;40.90;36.30;;;;;;5061032;28;20209;-71
2023/06/10 08:02:45;;;;;;;6.83;6.20;;;39.80;35.50;;;;;;5064512;28;20451;-71
2023/06/10 08:05:11;;;;;;;7.97;7.20;;;40.60;36.70;;;;;;5062413;28;21066;-72
2023/06/10 08:07:37;;;;;;;5.97;5.60;;;41.10;35.70;;;;;;5064636;28;20708;-74
2023/06/10 08:10:03;;;;;;;6.73;6.30;;;39.60;36.60;;;;;;5068442;28;20685;-74
2023/06/10 08:12:29;;;;;;;7.67;6.27;;;38.60;37.80;;;;;;5064716;28;20173;-74
2023/06/10 08:14:55;;;;;;;6.63;6.13;;;39.00;37.60;;;;;;5062470;28;20443;-74
2023/06/10 08:17:21;;;;;;;7.63;6.90;;;38.90;38.00;;;;;;5063090;28;20192;-73
2023/06/10 08:19:47;;;;;;;6.53;6.10;;;39.60;37.40;;;;;;5063497;28;20208;-71
2023/06/10 08:22:12;;;;;;;6.60;6.20;;;40.10;35.90;;;;;;5066054;28;20465;-73
2023/06/10 08:24:38;;;;;;;6.13;5.73;;;41.20;35.30;;;;;;5065234;28;20710;-72
2023/06/10 08:27:05;;;;;;;6.73;6.27;;;41.10;34.30;;;;;;5066420;28;20740;-73
2023/06/10 08:29:31;;;;;;;6.20;5.80;;;40.00;36.20;;;;;;5065109;28;20652;-73
2023/06/10 08:31:57;;;;;;;7.03;6.53;;;40.20;35.90;;;;;;5064402;28;20458;-73
2023/06/10 08:34:23;;;;;;;6.20;5.80;;;39.90;35.40;;;;;;5063845;28;20448;-74
2023/06/10 08:36:53;;;;;;;5.77;5.37;;;39.20;36.20;;;;;;5066273;28;20185;-74
2023/06/10 08:39:19;;;;;;;6.50;6.10;;;39.30;36.50;;;;;;5062274;28;20225;-73
2023/06/10 08:42:28;;;;;;;5.37;5.07;;;38.00;37.50;;;;;;5067941;28;20487;-74
2023/06/10 08:44:55;;;;;;;6.33;5.90;;;38.10;37.40;;;;;;5006864;28;20524;-73
2023/06/10 08:47:23;;;;;;;6.70;6.17;;;37.30;39.20;;;;;;5022153;28;20481;-76
2023/06/10 08:49:48;;;;;;;6.30;5.90;;;38.50;38.00;;;;;;5040813;28;20558;-74
2023/06/10 08:52:19;;;;;;;6.40;6.00;;;38.80;36.90;;;;;;5066167;28;21069;-73
2023/06/10 08:54:53;;;;;;;6.00;5.60;;;38.40;37.90;;;;;;5067314;28;20185;-73
2023/06/10 08:57:21;;;;;;;5.83;5.43;;;38.60;36.70;;;;;;5063221;28;20438;-73
2023/06/10 08:59:47;;;;;;;5.40;5.03;;;39.60;35.30;;;;;;5067231;28;21078;-73
2023/06/10 09:02:14;;;;;;;6.00;5.60;;;39.50;35.70;;;;;;5066833;28;21026;-74
2023/06/10 09:04:43;;;;;;;5.73;5.33;;;39.50;35.80;;;;;;5061310;28;20450;-73
2023/06/10 09:07:09;;;;;;;5.60;5.30;;;39.60;35.00;;;;;;5066161;28;20522;-73
2023/06/10 09:09:35;;;;;;;5.77;5.47;;;39.80;34.60;;;;;;5063066;28;20461;-73
2023/06/10 09:12:01;;;;;;;5.60;5.10;;;39.90;35.20;;;;;;5065211;28;20652;-74
2023/06/10 09:14:27;;;;;;;5.60;5.30;;;39.30;34.60;;;;;;5067303;28;20969;-74
2023/06/10 09:16:56;;;;;;;5.50;5.20;;;39.60;34.30;;;;;;5067994;28;20276;-75
2023/06/10 09:19:23;;;;;;;6.00;5.67;;;40.10;33.80;;;;;;5063712;28;20192;-74
2023/06/10 09:21:48;;;;;;;5.30;5.00;;;39.60;33.50;;;;;;5062661;28;20546;-73
2023/06/10 09:24:14;;;;;;;5.63;5.13;;;38.60;35.10;;;;;;5066875;28;21032;-73
2023/06/10 09:26:40;;;;;;;6.00;5.60;;;38.90;35.30;;;;;;5066860;28;20867;-74
2023/06/10 09:29:08;;;;;;;5.60;5.30;;;39.20;35.10;;;;;;5067911;28;20275;-73
2023/06/10 09:31:35;;;;;;;5.47;5.17;;;37.90;36.20;;;;;;5064493;28;20212;-72
2023/06/10 09:34:14;;;;;;;5.60;5.30;;;38.50;36.00;;;;;;5066761;28;20527;-72
2023/06/10 09:36:41;;;;;;;5.37;5.03;;;38.40;36.20;;;;;;5069098;28;20442;-73
2023/06/10 09:39:18;;;;;;;6.07;5.67;;;39.10;35.50;;;;;;5070967;28;20442;-73
2023/06/10 09:41:45;;;;;;;6.20;5.80;;;39.60;34.80;;;;;;5069300;28;20478;-73
2023/06/10 09:44:15;;;;;;;5.47;5.07;;;39.30;34.30;;;;;;5068131;28;20862;-74
2023/06/10 09:46:43;;;;;;;6.77;6.10;;;39.10;34.60;;;;;;5068864;28;21550;-73
2023/06/10 09:49:08;;;;;;;6.13;5.73;;;39.30;35.10;;;;;;5066254;28;20438;-73
2023/06/10 09:51:34;;;;;;;6.37;5.87;;;38.80;35.50;;;;;;5070194;28;20463;-73
2023/06/10 09:54:02;;;;;;;5.53;5.13;;;38.60;35.50;;;;;;5070185;28;20310;-73
2023/06/10 09:56:40;;;;;;;5.40;5.10;;;38.50;35.80;;;;;;5068900;28;20741;-73
2023/06/10 09:59:06;;;;;;;6.20;5.80;;;39.00;35.20;;;;;;5061754;28;20473;-73
2023/06/10 10:01:33;;;;;;;6.00;5.60;;;39.10;35.20;;;;;;5070627;28;20462;-73
2023/06/10 10:04:00;;;;;;;5.20;4.90;;;39.10;35.00;;;;;;5067033;28;20198;-73
2023/06/10 10:06:26;;;;;;;5.83;5.43;;;39.60;34.60;;;;;;5069296;28;20463;-74
2023/06/10 10:08:51;;;;;;;6.57;5.90;;;39.90;33.60;;;;;;5070393;28;20947;-74
2023/06/10 10:11:21;;;;;;;5.77;5.37;;;40.70;33.20;;;;;;5069109;28;20462;-73
2023/06/10 10:13:49;;;;;;;5.93;5.53;;;39.10;34.40;;;;;;5067002;28;20185;-73
2023/06/10 10:16:40;;;;;;;6.53;6.13;;;37.20;36.70;;;;;;5068848;28;20439;-74
2023/06/10 10:19:32;;;;;;;6.20;5.80;;;36.30;38.50;;;;;;5067713;28;20470;-71
2023/06/10 10:22:09;;;;;;;6.80;6.30;;;35.30;39.70;;;;;;5068447;28;20446;-72
2023/06/10 10:24:40;;;;;;;6.73;6.30;;;33.70;41.60;;;;;;5065685;28;20531;-73
2023/06/10 10:27:13;;;;;;;6.37;5.93;;;32.50;44.00;;;;;;5069371;28;20562;-72
2023/06/10 10:29:40;;;;;;;6.37;5.87;;;33.10;42.70;;;;;;5066760;28;20460;-72
2023/06/10 10:32:08;;;;;;;6.60;5.87;;;33.00;43.10;;;;;;5070253;28;20479;-72
2023/06/10 10:34:49;;;;;;;6.43;5.93;;;32.60;43.90;;;;;;5066955;28;20443;-73
2023/06/10 10:37:15;;;;;;;6.00;5.50;;;32.70;43.90;;;;;;5067582;28;20961;-73
2023/06/10 10:39:41;;;;;;;6.80;6.40;;;31.30;45.30;;;;;;5069574;28;20457;-72
2023/06/10 10:42:10;;;;;;;6.57;6.00;;;31.30;46.00;;;;;;5071486;28;20450;-72
2023/06/10 10:44:37;;;;;;;6.50;6.00;;;31.60;46.80;;;;;;5066528;28;20453;-73
2023/06/10 10:47:04;;;;;;;9.67;6.70;;;33.20;45.30;;;;;;5068433;28;20536;-74
2023/06/10 10:49:31;;;;;;;6.40;5.90;;;34.70;42.00;;;;;;5069042;28;20447;-73
2023/06/10 10:51:58;;;;;;;6.13;5.73;;;35.10;40.50;;;;;;5069858;28;20538;-73
2023/06/10 10:54:32;;;;;;;5.90;5.50;;;35.40;41.30;;;;;;5069696;28;20501;-74
2023/06/10 10:57:16;;;;;;;6.47;5.90;;;36.70;39.20;;;;;;5067804;28;20447;-73
2023/06/10 10:59:48;;;;;;;6.13;5.73;;;36.60;38.30;;;;;;5068349;28;20533;-73
2023/06/10 11:02:18;;;;;;;6.13;5.73;;;36.10;37.10;;;;;;5067785;28;20955;-73
2023/06/10 11:04:48;;;;;;;6.13;5.63;;;36.20;37.80;;;;;;5066482;28;20485;-73
2023/06/10 11:07:15;;;;;;;6.13;5.63;;;36.60;37.60;;;;;;5069581;28;20532;-73
2023/06/10 11:10:00;;;;;;;5.80;5.40;;;37.50;36.60;;;;;;5068863;28;20861;-73
2023/06/10 11:12:45;;;;;;;6.20;5.80;;;37.80;36.00;;;;;;5063875;28;20439;-73
2023/06/10 11:15:18;;;;;;;6.00;5.60;;;38.40;35.60;;;;;;5068138;28;20821;-72
2023/06/10 11:18:29;;;;;;;5.83;5.50;;;37.60;36.20;;;;;;5068625;28;20458;-73
2023/06/10 11:20:55;;;;;;;6.87;6.37;;;36.10;38.20;;;;;;5060112;28;20462;-73
2023/06/10 11:23:27;;;;;;;6.03;5.63;;;34.70;39.50;;;;;;5061573;28;20443;-73
2023/06/10 11:26:37;;;;;;;6.77;6.27;;;34.10;40.90;;;;;;5064394;28;20489;-73
2023/06/10 11:29:04;;;;;;;7.80;7.20;;;33.50;41.80;;;;;;5067690;28;20458;-73
2023/06/10 11:31:39;;;;;;;7.60;7.00;;;33.30;43.00;;;;;;5079636;28;20770;-73
2023/06/10 11:34:06;;;;;;;7.40;6.90;;;33.40;42.80;;;;;;5062749;28;20450;-73
2023/06/10 11:36:36;;;;;;;6.73;6.27;;;33.60;42.90;;;;;;5065469;28;20447;-73
2023/06/10 11:39:05;;;;;;;6.80;6.30;;;33.00;43.20;;;;;;5067375;28;20453;-73
2023/06/10 11:41:33;;;;;;;6.80;6.20;;;33.20;43.30;;;;;;5063923;28;20467;-73
2023/06/10 11:44:11;;;;;;;7.37;6.80;;;33.60;42.00;;;;;;5064133;28;20542;-73
2023/06/10 11:46:37;;;;;;;6.57;6.17;;;33.30;42.50;;;;;;5065126;28;20843;-72
2023/06/10 11:49:05;;;;;;;6.30;5.90;;;33.20;43.00;;;;;;5065945;28;20447;-72
2023/06/10 11:51:37;;;;;;;7.00;6.40;;;32.60;43.20;;;;;;5060144;28;20469;-73
2023/06/10 11:54:03;;;;;;;6.20;5.80;;;31.60;44.90;;;;;;5062126;28;20450;-72
2023/06/10 11:56:30;;;;;;;7.63;7.13;;;30.70;45.80;;;;;;5062614;28;20538;-73
2023/06/10 11:59:05;;;;;;;7.50;6.90;;;30.50;46.90;;;;;;5066184;28;20512;-72
2023/06/10 12:01:34;;;;;;;5.80;5.40;;;30.40;47.10;;;;;;5065972;28;20479;-71
2023/06/10 12:04:02;;;;;;;6.60;6.10;;;30.40;47.20;;;;;;5066114;28;20454;-72
2023/06/10 12:06:44;;;;;;;6.77;6.17;;;30.40;47.90;;;;;;5067187;28;20903;-73
2023/06/10 12:09:25;;;;;;;6.17;5.73;;;30.20;48.10;;;;;;5067818;28;20453;-74
2023/06/10 12:12:02;;;;;;;7.43;6.90;;;30.30;47.80;;;;;;5061355;28;20462;-72
2023/06/10 12:14:56;;;;;;;6.77;6.33;;;30.20;48.30;;;;;;5064892;28;20472;-72
2023/06/10 12:17:29;;;;;;;6.07;5.67;;;30.30;47.90;;;;;;5063800;28;20826;-72
2023/06/10 12:19:55;;;;;;;7.20;6.70;;;30.20;48.40;;;;;;5065022;28;20830;-72
2023/06/10 12:22:23;;;;;;;6.70;6.20;;;30.10;48.50;;;;;;5066574;28;20584;-72
2023/06/10 12:25:03;;;;;;;6.50;6.10;;;29.80;48.50;;;;;;5064167;28;20500;-72
2023/06/10 12:27:30;;;;;;;7.53;6.97;;;29.80;48.90;;;;;;5064342;28;20993;-72
2023/06/10 12:30:00;;;;;;;7.60;6.37;;;29.50;49.20;;;;;;5064917;28;20966;-72
2023/06/10 12:32:35;;;;;;;6.90;6.40;;;29.50;49.80;;;;;;5064902;28;20488;-72
2023/06/10 12:35:05;;;;;;;6.43;5.93;;;29.40;49.20;;;;;;5063399;28;20445;-72
2023/06/10 12:37:33;;;;;;;6.00;5.60;;;29.30;48.90;;;;;;5067173;28;20808;-73
2023/06/10 12:40:02;;;;;;;6.37;5.87;;;29.10;49.00;;;;;;5063313;28;20469;-72
2023/06/10 12:42:29;;;;;;;6.60;6.10;;;29.00;49.10;;;;;;5064910;28;20538;-72
2023/06/10 12:45:00;;;;;;;5.73;5.43;;;28.90;49.00;;;;;;5067482;28;20456;-73
2023/06/10 12:47:38;;;;;;;6.77;6.27;;;28.80;49.40;;;;;;5064956;28;20564;-73
2023/06/10 12:50:05;;;;;;;6.07;5.57;;;28.60;50.10;;;;;;5061936;28;20469;-72
2023/06/10 12:52:32;;;;;;;6.57;6.07;;;28.40;50.30;;;;;;5065418;28;20814;-72